createdAt,value
2022-09-15T00:00:12.170Z,10.75
2022-09-15T00:02:40.157Z,10.68
2022-09-15T00:05:07.760Z,10.52
2022-09-15T00:07:41.767Z,10.88
2022-09-15T00:10:09.525Z,11.13
2022-09-15T00:12:37.752Z,11.05
2022-09-15T00:15:14.913Z,12.25
2022-09-15T00:17:43.629Z,12.23
2022-09-15T00:20:21.659Z,11.18
2022-09-15T00:22:49.680Z,11.15
2022-09-15T00:25:23.900Z,11.48
2022-09-15T00:27:50.819Z,11.07
2022-09-15T00:30:19.960Z,11.00
2022-09-15T00:32:51.933Z,11.10
2022-09-15T00:35:21.800Z,11.52
2022-09-15T00:37:50.810Z,12.07
2022-09-15T00:40:18.044Z,12.52
2022-09-15T00:42:46.052Z,12.65
2022-09-15T00:45:16.492Z,11.77
2022-09-15T00:47:44.947Z,12.50
2022-09-15T00:50:22.255Z,12.40
2022-09-15T00:53:05.575Z,13.20
2022-09-15T00:55:43.750Z,12.60
2022-09-15T00:58:34.675Z,13.18
2022-09-15T01:01:04.265Z,13.32
2022-09-15T01:04:18.205Z,14.30
2022-09-15T01:06:58.906Z,13.60
2022-09-15T01:09:41.853Z,15.07
2022-09-15T01:12:13.933Z,14.98
2022-09-15T01:14:45.119Z,14.05
2022-09-15T01:17:14.299Z,14.20
2022-09-15T01:20:10.649Z,15.00
2022-09-15T01:23:31.513Z,14.15
2022-09-15T01:26:20.212Z,13.40
2022-09-15T01:29:17.559Z,14.43
2022-09-15T01:32:10.791Z,14.60
2022-09-15T01:34:55.406Z,14.35
2022-09-15T01:37:32.205Z,14.23
2022-09-15T01:40:06.928Z,15.60
2022-09-15T01:42:38.178Z,15.15
2022-09-15T01:45:14.466Z,15.38
2022-09-15T01:47:45.147Z,15.90
2022-09-15T01:50:25.230Z,15.82
2022-09-15T01:52:57.997Z,16.08
2022-09-15T01:55:38.193Z,16.17
2022-09-15T01:58:12.104Z,16.92
2022-09-15T02:00:47.427Z,16.25
2022-09-15T02:03:39.737Z,16.95
2022-09-15T02:06:17.190Z,16.48
2022-09-15T02:08:47.929Z,17.52
2022-09-15T02:11:26.934Z,17.95
2022-09-15T02:14:11.600Z,16.55
2022-09-15T02:16:43.512Z,17.05
2022-09-15T02:19:32.025Z,18.17
2022-09-15T02:22:23.238Z,17.92
2022-09-15T02:25:33.916Z,18.77
2022-09-15T02:28:09.154Z,17.42
2022-09-15T02:30:49.446Z,16.95
2022-09-15T02:33:36.171Z,17.55
2022-09-15T02:39:49.501Z,21.17
2022-09-15T02:42:33.470Z,19.77
2022-09-15T02:45:09.232Z,18.60
2022-09-15T02:48:01.108Z,18.27
2022-09-15T02:50:39.346Z,18.60
2022-09-15T02:53:29.127Z,20.58
2022-09-15T02:55:58.270Z,24.70
2022-09-15T03:02:16.662Z,19.90
2022-09-15T03:05:35.170Z,19.92
2022-09-15T03:08:10.506Z,18.98
2022-09-15T03:10:46.742Z,22.65
2022-09-15T03:13:24.102Z,23.60
2022-09-15T03:16:09.565Z,20.95
2022-09-15T03:19:20.142Z,29.67
2022-09-15T03:22:00.429Z,22.25
2022-09-15T03:24:35.944Z,20.67
2022-09-15T03:27:34.607Z,20.42
2022-09-15T03:30:11.663Z,19.13
2022-09-15T03:32:49.847Z,15.13
2022-09-15T03:35:33.485Z,15.63
2022-09-15T03:38:33.796Z,14.93
2022-09-15T03:41:22.951Z,14.45
2022-09-15T03:43:55.301Z,14.77
2022-09-15T03:46:38.344Z,15.25
2022-09-15T03:49:11.526Z,14.27
2022-09-15T03:51:51.476Z,15.52
2022-09-15T03:55:05.182Z,14.43
2022-09-15T03:57:34.171Z,12.15
2022-09-15T04:00:05.510Z,10.93
2022-09-15T04:02:33.500Z,9.00
2022-09-15T04:05:00.644Z,7.13
2022-09-15T04:07:30.558Z,6.50
2022-09-15T04:10:10.092Z,4.22
2022-09-15T04:12:37.163Z,2.97
2022-09-15T04:15:04.635Z,2.95
2022-09-15T04:17:33.691Z,2.72
2022-09-15T04:20:03.351Z,2.47
2022-09-15T04:22:33.325Z,2.38
2022-09-15T04:25:01.326Z,3.00
2022-09-15T04:27:29.472Z,3.47
2022-09-15T04:30:07.444Z,3.20
2022-09-15T04:32:36.369Z,3.60
2022-09-15T04:35:08.811Z,3.45
2022-09-15T04:37:35.950Z,3.10
2022-09-15T04:40:04.378Z,2.80
2022-09-15T04:42:31.972Z,2.47
2022-09-15T04:44:59.489Z,2.53
2022-09-15T04:47:37.787Z,2.55
2022-09-15T04:50:05.118Z,2.65
2022-09-15T04:52:34.309Z,2.75
2022-09-15T04:55:07.965Z,2.70
2022-09-15T04:57:38.029Z,2.88
2022-09-15T05:00:07.381Z,2.70
2022-09-15T05:02:42.806Z,3.08
2022-09-15T05:05:09.998Z,2.28
2022-09-15T05:07:38.142Z,2.55
2022-09-15T05:10:08.524Z,2.65
2022-09-15T05:12:35.689Z,2.90
2022-09-15T05:15:04.099Z,3.10
2022-09-15T05:17:40.136Z,2.80
2022-09-15T05:20:08.467Z,3.00
2022-09-15T05:22:39.526Z,2.70
2022-09-15T05:25:08.926Z,2.70
2022-09-15T05:27:36.896Z,2.90
2022-09-15T05:30:34.851Z,2.50
2022-09-15T05:32:57.995Z,2.88
2022-09-15T05:35:25.677Z,3.08
2022-09-15T05:37:53.659Z,3.20
2022-09-15T05:40:22.484Z,3.17
2022-09-15T05:42:49.552Z,3.13
2022-09-15T05:45:19.570Z,3.50
2022-09-15T05:47:46.550Z,3.80
2022-09-15T05:50:18.687Z,4.10
2022-09-15T05:52:51.589Z,4.13
2022-09-15T05:55:18.845Z,4.53
2022-09-15T05:57:47.928Z,4.13
2022-09-15T06:00:17.156Z,4.28
2022-09-15T06:02:45.290Z,4.00
2022-09-15T06:05:13.663Z,4.93
2022-09-15T06:07:41.701Z,5.20
2022-09-15T06:10:10.218Z,5.68
2022-09-15T06:12:43.182Z,5.82
2022-09-15T06:15:12.896Z,5.75
2022-09-15T06:17:41.867Z,5.88
2022-09-15T06:20:22.098Z,6.15
2022-09-15T06:22:49.085Z,6.88
2022-09-15T06:25:16.227Z,6.50
2022-09-15T06:27:43.210Z,6.22
2022-09-15T06:30:10.986Z,6.70
2022-09-15T06:32:38.183Z,7.63
2022-09-15T06:35:07.417Z,7.82
2022-09-15T06:37:37.604Z,8.98
2022-09-15T06:40:05.528Z,8.10
2022-09-15T06:42:34.412Z,8.65
2022-09-15T06:45:01.570Z,8.70
2022-09-15T06:47:34.228Z,8.70
2022-09-15T06:50:03.791Z,7.97
2022-09-15T06:52:31.843Z,8.13
2022-09-15T06:55:01.018Z,7.50
2022-09-15T06:57:30.048Z,8.38
2022-09-15T06:59:58.277Z,8.07
2022-09-15T07:02:26.436Z,7.80
2022-09-15T07:04:53.774Z,8.90
2022-09-15T07:07:24.025Z,8.98
2022-09-15T07:09:52.511Z,10.20
2022-09-15T07:12:29.386Z,8.43
2022-09-15T07:14:57.415Z,9.25
2022-09-15T07:17:26.969Z,10.02
2022-09-15T07:19:58.981Z,10.70
2022-09-15T07:22:34.084Z,9.40
2022-09-15T07:25:28.586Z,8.80
2022-09-15T07:27:57.649Z,9.63
2022-09-15T07:30:45.108Z,11.07
2022-09-15T07:33:14.528Z,10.88
2022-09-15T07:35:47.976Z,10.82
2022-09-15T07:38:15.082Z,11.50
2022-09-15T07:40:49.334Z,9.07
2022-09-15T07:43:16.576Z,9.85
2022-09-15T07:45:53.019Z,7.43
2022-09-15T07:48:25.794Z,7.90
2022-09-15T07:51:00.240Z,9.00
2022-09-15T07:56:03.935Z,9.77
2022-09-15T07:58:33.864Z,9.57
2022-09-15T08:01:06.893Z,20.27
2022-09-15T08:03:34.972Z,11.15
2022-09-15T08:06:24.623Z,9.38
2022-09-15T08:08:56.383Z,8.45
2022-09-15T08:11:32.886Z,8.63
2022-09-15T08:14:03.513Z,8.15
2022-09-15T08:16:32.058Z,7.60
2022-09-15T08:19:07.442Z,7.68
2022-09-15T08:21:40.792Z,8.20
2022-09-15T08:24:14.185Z,7.95
2022-09-15T08:26:51.305Z,7.55
2022-09-15T08:29:35.648Z,7.00
2022-09-15T08:32:04.968Z,7.13
2022-09-15T08:34:33.901Z,9.50
2022-09-15T08:37:04.086Z,7.55
2022-09-15T08:39:32.204Z,10.07
2022-09-15T08:42:06.850Z,8.38
2022-09-15T08:44:37.674Z,9.88
2022-09-15T08:47:17.742Z,7.18
2022-09-15T08:49:57.514Z,6.07
2022-09-15T08:52:41.945Z,6.05
2022-09-15T08:55:38.197Z,7.38
2022-09-15T08:58:30.006Z,5.97
2022-09-15T09:01:16.476Z,6.50
2022-09-15T09:04:21.652Z,5.70
2022-09-15T09:07:25.811Z,6.90
2022-09-15T09:10:19.829Z,5.53
2022-09-15T09:12:56.828Z,5.00
2022-09-15T09:15:32.886Z,4.72
2022-09-15T09:18:30.900Z,4.90
2022-09-15T09:21:40.136Z,5.07
2022-09-15T09:24:26.581Z,4.70
2022-09-15T09:26:56.115Z,5.07
2022-09-15T09:30:00.996Z,4.53
2022-09-15T09:32:39.620Z,4.78
2022-09-15T09:35:32.829Z,5.60
2022-09-15T09:38:15.033Z,6.00
2022-09-15T09:40:43.377Z,5.68
2022-09-15T09:43:11.395Z,5.75
2022-09-15T09:45:38.549Z,5.75
2022-09-15T09:48:26.649Z,6.13
2022-09-15T09:50:59.786Z,7.90
2022-09-15T09:53:36.960Z,6.18
2022-09-15T09:56:25.797Z,6.43
2022-09-15T09:59:00.026Z,7.22
2022-09-15T10:01:28.263Z,6.95
2022-09-15T10:04:23.224Z,7.80
2022-09-15T10:06:56.412Z,5.97
2022-09-15T10:09:23.521Z,5.75
2022-09-15T10:12:32.180Z,6.90
2022-09-15T10:15:05.452Z,6.47
2022-09-15T10:17:59.710Z,6.10
2022-09-15T10:23:28.117Z,5.82
2022-09-15T10:26:00.362Z,5.83
2022-09-15T10:29:17.371Z,5.63
2022-09-15T10:31:46.492Z,5.63
2022-09-15T10:34:26.965Z,6.15
2022-09-15T10:37:06.538Z,4.90
2022-09-15T10:39:54.621Z,5.63
2022-09-15T10:42:44.340Z,5.80
2022-09-15T10:45:25.937Z,5.43
2022-09-15T10:48:16.224Z,6.15
2022-09-15T10:50:55.493Z,5.45
2022-09-15T10:53:29.523Z,5.50
2022-09-15T10:56:16.633Z,5.65
2022-09-15T10:59:32.428Z,5.05
2022-09-15T11:02:14.895Z,4.70
2022-09-15T11:05:00.650Z,5.30
2022-09-15T11:10:27.457Z,5.85
2022-09-15T11:13:18.816Z,5.68
2022-09-15T11:15:48.817Z,5.97
2022-09-15T11:18:40.099Z,5.68
2022-09-15T11:21:27.136Z,5.68
2022-09-15T11:24:22.439Z,6.00
2022-09-15T11:26:58.237Z,5.88
2022-09-15T11:29:29.792Z,5.68
2022-09-15T11:32:12.138Z,5.55
2022-09-15T11:34:51.330Z,5.50
2022-09-15T11:37:45.571Z,6.38
2022-09-15T11:40:41.360Z,6.47
2022-09-15T11:43:21.115Z,5.78
2022-09-15T11:45:54.775Z,6.40
2022-09-15T11:48:41.410Z,5.93
2022-09-15T11:51:16.165Z,5.60
2022-09-15T11:53:48.999Z,5.68
2022-09-15T11:56:43.033Z,4.97
2022-09-15T11:59:27.876Z,5.50
2022-09-15T12:02:28.749Z,5.13
2022-09-15T12:05:19.594Z,5.82
2022-09-15T12:08:02.825Z,5.63
2022-09-15T12:10:41.267Z,5.60
2022-09-15T12:13:18.524Z,5.30
2022-09-15T12:16:09.159Z,5.53
2022-09-15T12:18:57.739Z,6.50
2022-09-15T12:21:51.620Z,6.38
2022-09-15T12:24:40.016Z,7.72
2022-09-15T12:27:18.742Z,8.60
2022-09-15T12:29:56.479Z,10.45
2022-09-15T12:32:27.217Z,8.70
2022-09-15T12:35:18.084Z,8.88
2022-09-15T12:37:54.056Z,8.02
2022-09-15T12:41:18.517Z,6.57
2022-09-15T12:44:05.259Z,6.68
2022-09-15T12:46:33.401Z,6.93
2022-09-15T12:49:13.740Z,6.85
2022-09-15T12:51:50.287Z,6.80
2022-09-15T12:54:29.805Z,6.70
2022-09-15T12:56:59.702Z,6.70
2022-09-15T12:59:29.221Z,6.60
2022-09-15T13:01:58.203Z,7.03
2022-09-15T13:04:51.760Z,7.18
2022-09-15T13:07:21.223Z,7.47
2022-09-15T13:10:08.474Z,8.10
2022-09-15T13:12:41.492Z,6.88
2022-09-15T13:15:15.033Z,7.40
2022-09-15T13:17:46.701Z,7.60
2022-09-15T13:20:34.593Z,7.45
2022-09-15T13:23:04.102Z,6.88
2022-09-15T13:25:31.576Z,6.82
2022-09-15T13:28:01.937Z,6.47
2022-09-15T13:30:43.320Z,7.47
2022-09-15T13:40:32.756Z,7.35
2022-09-15T13:43:33.316Z,6.40
2022-09-15T13:46:35.838Z,6.97
2022-09-15T13:49:38.300Z,6.53
2022-09-15T13:52:23.573Z,7.32
2022-09-15T13:55:19.074Z,7.47
2022-09-15T14:01:00.374Z,7.95
2022-09-15T14:03:40.212Z,7.70
2022-09-15T14:06:43.275Z,7.72
2022-09-15T14:12:08.370Z,7.68
2022-09-15T14:14:44.683Z,9.23
2022-09-15T14:17:30.130Z,8.57
2022-09-15T14:20:00.909Z,8.95
2022-09-15T14:22:30.612Z,8.77
2022-09-15T14:25:16.855Z,8.63
2022-09-15T14:27:47.142Z,8.43
2022-09-15T14:30:27.182Z,8.05
2022-09-15T14:33:00.701Z,7.93
2022-09-15T14:35:35.809Z,10.88
2022-09-15T14:38:03.239Z,7.88
2022-09-15T14:40:36.175Z,6.65
2022-09-15T14:43:40.960Z,6.68
2022-09-15T14:46:13.898Z,6.38
2022-09-15T14:49:08.143Z,6.40
2022-09-15T14:51:46.654Z,6.43
2022-09-15T14:54:24.777Z,4.13
2022-09-15T14:56:55.274Z,4.90
2022-09-15T14:59:42.013Z,9.23
2022-09-15T15:02:33.332Z,5.88
2022-09-15T15:05:26.665Z,5.13
2022-09-15T15:07:55.837Z,4.35
2022-09-15T15:10:28.569Z,4.00
2022-09-15T15:13:21.132Z,4.07
2022-09-15T15:15:49.086Z,4.30
2022-09-15T15:18:40.322Z,4.75
2022-09-15T15:21:41.366Z,4.70
2022-09-15T15:24:14.212Z,4.45
2022-09-15T15:26:44.878Z,4.20
2022-09-15T15:29:48.423Z,3.67
2022-09-15T15:32:27.412Z,3.35
2022-09-15T15:35:04.303Z,4.75
2022-09-15T15:37:34.247Z,3.30
2022-09-15T15:40:07.399Z,3.58
2022-09-15T15:43:07.189Z,3.63
2022-09-15T15:45:57.824Z,4.30
2022-09-15T15:48:26.223Z,4.47
2022-09-15T15:50:54.664Z,4.40
2022-09-15T15:53:21.992Z,4.65
2022-09-15T15:55:49.072Z,4.20
2022-09-15T15:58:45.098Z,4.50
2022-09-15T16:01:28.804Z,4.47
2022-09-15T16:03:56.948Z,4.15
2022-09-15T16:06:25.206Z,4.90
2022-09-15T16:09:03.451Z,4.22
2022-09-15T16:11:33.817Z,4.90
2022-09-15T16:14:00.899Z,11.57
2022-09-15T16:16:33.166Z,8.95
2022-09-15T16:19:19.438Z,17.85
2022-09-15T16:21:47.606Z,5.47
2022-09-15T16:24:16.079Z,4.90
2022-09-15T16:26:43.831Z,4.40
2022-09-15T16:29:36.549Z,5.15
2022-09-15T16:32:07.652Z,5.15
2022-09-15T16:34:34.664Z,4.63
2022-09-15T16:37:01.858Z,5.18
2022-09-15T16:39:31.566Z,6.60
2022-09-15T16:44:26.391Z,9.45
2022-09-15T16:46:53.478Z,9.93
2022-09-15T16:49:20.795Z,9.65
2022-09-15T16:51:48.887Z,10.77
2022-09-15T16:54:20.506Z,10.15
2022-09-15T16:56:56.766Z,10.23
2022-09-15T16:59:37.139Z,10.13
2022-09-15T17:02:12.756Z,10.10
2022-09-15T17:04:41.898Z,10.30
2022-09-15T17:07:11.946Z,11.30
2022-09-15T17:09:47.468Z,10.10
2022-09-15T17:12:14.703Z,11.25
2022-09-15T17:14:45.751Z,10.90
2022-09-15T17:17:25.701Z,11.82
2022-09-15T17:19:55.690Z,11.90
2022-09-15T17:22:25.851Z,11.98
2022-09-15T17:24:56.874Z,12.18
2022-09-15T17:27:25.154Z,10.60
2022-09-15T17:29:53.296Z,10.82
2022-09-15T17:32:20.418Z,12.30
2022-09-15T17:34:47.646Z,10.65
2022-09-15T17:37:18.876Z,12.02
2022-09-15T17:39:58.899Z,11.25
2022-09-15T17:42:31.670Z,11.77
2022-09-15T17:45:36.605Z,12.00
2022-09-15T17:48:05.088Z,12.00
2022-09-15T17:50:40.249Z,12.23
2022-09-15T17:53:22.933Z,12.43
2022-09-15T17:55:55.899Z,12.55
2022-09-15T17:58:25.405Z,13.52
2022-09-15T18:00:53.479Z,13.32
2022-09-15T18:03:33.878Z,13.57
2022-09-15T18:06:12.305Z,12.98
2022-09-15T18:08:40.249Z,12.50
2022-09-15T18:11:14.765Z,13.30
2022-09-15T18:13:42.236Z,13.55
2022-09-15T18:16:14.764Z,13.75
2022-09-15T18:18:42.304Z,13.30
2022-09-15T18:21:22.547Z,13.65
2022-09-15T18:23:51.218Z,13.27
2022-09-15T18:26:23.862Z,15.73
2022-09-15T18:28:55.008Z,14.13
2022-09-15T18:31:22.594Z,18.42
2022-09-15T18:33:49.920Z,14.57
2022-09-15T18:36:17.335Z,14.30
2022-09-15T18:38:44.798Z,14.32
2022-09-15T18:41:12.422Z,15.52
2022-09-15T18:43:39.921Z,13.88
2022-09-15T18:46:08.414Z,13.63
2022-09-15T18:48:35.756Z,13.27
2022-09-15T18:51:08.923Z,14.05
2022-09-15T18:53:39.602Z,13.90
2022-09-15T18:56:14.476Z,13.80
2022-09-15T18:58:42.059Z,14.25
2022-09-15T19:01:10.543Z,13.63
2022-09-15T19:03:44.866Z,13.48
2022-09-15T19:06:12.701Z,13.60
2022-09-15T19:08:41.298Z,13.85
2022-09-15T19:11:16.796Z,14.10
2022-09-15T19:13:44.156Z,14.68
2022-09-15T19:16:11.655Z,14.40
2022-09-15T19:18:39.850Z,13.48
2022-09-15T19:21:09.190Z,13.65
2022-09-15T19:23:36.607Z,13.57
2022-09-15T19:26:09.119Z,12.77
2022-09-15T19:28:36.438Z,12.48
2022-09-15T19:31:03.771Z,12.82
2022-09-15T19:33:32.098Z,12.85
2022-09-15T19:36:24.191Z,12.70
2022-09-15T19:38:54.766Z,11.88
2022-09-15T19:41:23.074Z,13.00
2022-09-15T19:43:50.089Z,12.38
2022-09-15T19:46:21.298Z,12.40
2022-09-15T19:48:50.185Z,13.68
2022-09-15T19:51:18.167Z,12.18
2022-09-15T19:53:46.843Z,11.27
2022-09-15T19:56:18.750Z,10.68
2022-09-15T19:58:46.631Z,10.82
2022-09-15T20:01:15.685Z,10.55
2022-09-15T20:06:35.799Z,10.75
2022-09-15T20:09:08.084Z,10.80
2022-09-15T20:11:36.186Z,11.20
2022-09-15T20:14:06.854Z,10.48
2022-09-15T20:16:35.907Z,11.52
2022-09-15T20:19:05.216Z,12.43
2022-09-15T20:21:49.820Z,12.30
2022-09-15T20:24:29.837Z,12.07
2022-09-15T20:27:00.861Z,11.73
2022-09-15T20:29:28.073Z,11.65
2022-09-15T20:31:56.245Z,11.32
2022-09-15T20:34:23.237Z,11.77
2022-09-15T20:36:51.271Z,11.02
2022-09-15T20:39:22.374Z,10.88
2022-09-15T20:41:52.570Z,11.48
2022-09-15T20:44:23.528Z,11.43
2022-09-15T20:46:53.862Z,11.18
2022-09-15T20:49:25.003Z,10.05
2022-09-15T20:51:53.280Z,10.35
2022-09-15T20:54:25.618Z,9.88
2022-09-15T20:56:52.636Z,9.10
2022-09-15T20:59:26.832Z,8.77
2022-09-15T21:01:57.018Z,9.15
2022-09-15T21:04:25.083Z,9.88
2022-09-15T21:06:55.198Z,9.82
2022-09-15T21:09:22.204Z,9.75
2022-09-15T21:11:53.584Z,9.98
2022-09-15T21:14:22.906Z,10.02
2022-09-15T21:16:55.057Z,10.55
2022-09-15T21:19:22.215Z,10.02
2022-09-15T21:21:54.710Z,10.65
2022-09-15T21:24:22.935Z,10.38
2022-09-15T21:27:08.149Z,11.18
2022-09-15T21:29:36.207Z,10.73
2022-09-15T21:32:05.324Z,9.70
2022-09-15T21:34:32.360Z,9.27
2022-09-15T21:36:59.358Z,8.70
2022-09-15T21:39:27.847Z,8.52
2022-09-15T21:41:56.019Z,7.65
2022-09-15T21:44:28.160Z,8.00
2022-09-15T21:47:01.426Z,7.43
2022-09-15T21:49:38.611Z,7.88
2022-09-15T21:52:05.663Z,8.38
2022-09-15T21:54:33.700Z,8.57
2022-09-15T21:57:00.929Z,8.25
2022-09-15T21:59:28.967Z,7.90
2022-09-15T22:01:58.130Z,8.25
2022-09-15T22:04:26.258Z,7.22
2022-09-15T22:07:04.736Z,7.85
2022-09-15T22:09:39.019Z,7.13
2022-09-15T22:12:06.317Z,7.32
2022-09-15T22:14:39.530Z,7.28
2022-09-15T22:17:17.984Z,7.80
2022-09-15T22:19:51.175Z,7.57
2022-09-15T22:22:18.258Z,7.30
2022-09-15T22:24:45.337Z,7.72
2022-09-15T22:27:12.293Z,7.22
2022-09-15T22:29:41.438Z,7.15
2022-09-15T22:32:09.382Z,6.85
2022-09-15T22:34:38.415Z,6.50
2022-09-15T22:37:05.548Z,6.85
2022-09-15T22:39:57.150Z,6.07
2022-09-15T22:42:26.187Z,6.63
2022-09-15T22:45:01.249Z,6.10
2022-09-15T22:47:45.219Z,5.75
2022-09-15T22:50:12.400Z,5.97
2022-09-15T22:52:40.391Z,6.60
2022-09-15T22:55:07.838Z,6.38
2022-09-15T22:57:41.952Z,5.93
2022-09-15T23:00:11.782Z,6.53
2022-09-15T23:02:38.850Z,7.18
2022-09-15T23:05:10.317Z,7.22
2022-09-15T23:07:37.352Z,7.30
2022-09-15T23:10:06.572Z,7.85
2022-09-15T23:12:35.228Z,7.43
2022-09-15T23:15:04.689Z,7.97
2022-09-15T23:17:36.138Z,7.53
2022-09-15T23:20:06.417Z,8.18
2022-09-15T23:22:33.448Z,7.95
2022-09-15T23:25:01.530Z,8.27
2022-09-15T23:27:38.469Z,8.85
2022-09-15T23:30:10.321Z,8.85
2022-09-15T23:32:41.309Z,9.50
2022-09-15T23:35:08.774Z,9.25
2022-09-15T23:37:35.922Z,10.77
2022-09-15T23:40:04.171Z,10.70
2022-09-15T23:42:33.333Z,10.05
2022-09-15T23:45:07.844Z,10.68
2022-09-15T23:47:40.072Z,9.43
2022-09-15T23:50:07.373Z,9.90
2022-09-15T23:52:34.449Z,9.23
2022-09-15T23:55:01.574Z,9.63
2022-09-15T23:57:43.841Z,9.95
